Time;durP1;ratioP1;P1;durP2;ratioP2;P2;SDS_P1;SDS_P2;PMS_P1;PMS_P2;Temp;Humidity;BMP_temperature;BMP_pressure;BME280_temperature;BME280_humidity;BME280_pressure;Samples;Min_cycle;Max_cycle;Signal;HPM_P1;HPM_P2
2022/11/07 00:02:02;;;;;;;5.50;3.13;;;;;;;9.27;79.90;98634.91;5100730;27;20035;-62
2022/11/07 00:04:28;;;;;;;7.10;3.45;;;;;;;9.31;79.74;98632.88;5096495;28;20023;-63
2022/11/07 00:06:54;;;;;;;6.18;3.40;;;;;;;9.11;79.79;98599.16;5109577;27;20073;-62
2022/11/07 00:09:20;;;;;;;6.95;3.40;;;;;;;9.07;79.17;98599.53;5096143;28;20032;-62
2022/11/07 00:11:45;;;;;;;6.32;3.17;;;;;;;9.07;79.04;98597.75;5093921;28;20043;-61
2022/11/07 00:14:15;;;;;;;6.43;2.97;;;;;;;9.30;79.29;98639.84;5097579;28;20390;-61
2022/11/07 00:16:41;;;;;;;6.53;3.17;;;;;;;9.28;80.34;98640.94;5097459;28;20027;-63
2022/11/07 00:19:07;;;;;;;5.57;2.80;;;;;;;9.21;80.95;98635.47;5132695;27;20039;-62
2022/11/07 00:21:32;;;;;;;5.00;2.50;;;;;;;9.32;80.65;98639.72;5076776;28;20073;-62
2022/11/07 00:23:58;;;;;;;7.40;3.40;;;;;;;9.20;80.69;98626.06;5090828;28;20107;-62
2022/11/07 00:26:24;;;;;;;6.15;2.72;;;;;;;9.18;80.93;98633.13;5082544;28;20641;-62
2022/11/07 00:28:49;;;;;;;5.13;2.40;;;;;;;9.18;80.67;98639.16;5077175;28;20027;-62
2022/11/07 00:31:15;;;;;;;5.30;2.55;;;;;;;9.04;82.09;98632.59;5091741;28;20023;-62
2022/11/07 00:33:42;;;;;;;5.35;2.40;;;;;;;9.09;82.58;98641.72;5116034;27;20050;-62
2022/11/07 00:36:08;;;;;;;5.03;2.40;;;;;;;9.11;83.31;98645.00;5094156;28;20482;-62
2022/11/07 00:38:34;;;;;;;5.63;2.72;;;;;;;8.99;82.35;98626.97;5080614;28;20122;-61
2022/11/07 00:41:02;;;;;;;5.97;2.80;;;;;;;9.07;82.32;98635.84;5094671;28;20156;-62
2022/11/07 00:43:28;;;;;;;5.82;2.72;;;;;;;9.01;82.65;98638.03;5097159;28;20099;-62
2022/11/07 00:45:54;;;;;;;5.07;2.33;;;;;;;8.95;82.89;98641.16;5097301;28;20107;-62
2022/11/07 00:48:19;;;;;;;6.22;2.65;;;;;;;8.96;83.51;98636.78;5093006;28;20126;-63
2022/11/07 00:50:45;;;;;;;5.57;2.70;;;;;;;8.94;83.02;98634.31;5092448;28;20070;-62
2022/11/07 00:53:10;;;;;;;5.35;2.35;;;;;;;8.97;82.76;98644.44;5082252;27;20057;-62
2022/11/07 00:55:36;;;;;;;5.57;3.00;;;;;;;8.90;83.59;98640.75;5092735;28;20035;-61
2022/11/07 00:58:01;;;;;;;5.13;2.55;;;;;;;8.96;83.47;98636.78;5098876;28;20038;-62
2022/11/07 01:00:26;;;;;;;5.53;2.45;;;;;;;8.95;83.27;98628.19;5092476;28;20767;-62
2022/11/07 01:05:36;;;;;;;5.88;2.28;;;;;;;8.84;82.96;98625.72;5093424;28;20103;-62
2022/11/07 01:08:02;;;;;;;5.05;2.15;;;;;;;8.62;82.92;98611.22;5095398;28;20617;-62
2022/11/07 01:10:27;;;;;;;4.90;2.20;;;;;;;8.75;82.70;98626.53;5107808;27;20050;-62
2022/11/07 01:12:53;;;;;;;5.18;2.22;;;;;;;8.75;83.06;98637.72;5091900;28;20082;-62
2022/11/07 01:15:20;;;;;;;5.68;2.40;;;;;;;8.70;83.76;98628.69;5097292;28;20120;-62
2022/11/07 01:17:45;;;;;;;5.25;2.25;;;;;;;8.74;82.57;98625.69;5094592;28;20050;-62
2022/11/07 01:20:10;;;;;;;6.72;2.20;;;;;;;8.81;81.43;98641.53;5092509;28;20067;-62
2022/11/07 01:22:36;;;;;;;5.18;2.08;;;;;;;8.73;81.16;98634.44;5109409;28;20534;-62
2022/11/07 01:25:02;;;;;;;4.72;2.10;;;;;;;8.78;80.23;98642.63;5102643;27;20027;-62
2022/11/07 01:27:27;;;;;;;4.97;1.77;;;;;;;8.84;78.84;98643.88;5100580;28;20085;-61
2022/11/07 01:29:53;;;;;;;4.35;1.92;;;;;;;8.76;79.00;98647.13;5100675;28;20515;-62
2022/11/07 01:32:18;;;;;;;5.57;2.35;;;;;;;8.87;79.68;98635.84;5083360;28;20032;-62
2022/11/07 01:34:44;;;;;;;5.43;1.90;;;;;;;8.83;79.18;98644.81;5101705;28;20042;-62
2022/11/07 01:37:09;;;;;;;4.78;1.98;;;;;;;8.75;79.53;98644.66;5086257;28;20035;-62
2022/11/07 01:39:34;;;;;;;4.80;1.90;;;;;;;8.84;79.21;98644.69;5101356;28;20036;-62
2022/11/07 01:42:00;;;;;;;5.00;2.10;;;;;;;8.55;78.52;98610.91;5102225;28;20028;-62
2022/11/07 01:44:25;;;;;;;4.70;1.77;;;;;;;8.87;78.19;98655.75;5098594;28;20490;-62
2022/11/07 01:46:54;;;;;;;4.50;1.65;;;;;;;8.77;77.33;98640.97;5101135;28;20085;-60
2022/11/07 01:49:27;;;;;;;4.65;1.90;;;;;;;8.64;77.64;98617.09;5082882;27;20040;-62
2022/11/07 01:52:06;;;;;;;5.68;2.00;;;;;;;8.90;77.80;98658.09;5099715;28;20063;-62
2022/11/07 01:54:39;;;;;;;4.45;1.85;;;;;;;8.85;77.94;98650.69;5104458;28;20034;-62
2022/11/07 01:57:09;;;;;;;5.80;1.80;;;;;;;8.85;78.77;98658.47;5098767;28;20020;-62
2022/11/07 01:59:35;;;;;;;4.63;1.63;;;;;;;8.77;77.86;98655.72;5103777;28;20049;-63
2022/11/07 02:02:01;;;;;;;5.57;1.80;;;;;;;8.70;78.30;98657.22;5069905;28;20032;-63
2022/11/07 02:04:28;;;;;;;4.35;1.65;;;;;;;8.68;78.74;98656.53;5103412;28;20032;-63
2022/11/07 02:06:59;;;;;;;5.05;1.95;;;;;;;8.41;78.47;98593.91;5079470;28;20032;-62
2022/11/07 02:09:25;;;;;;;4.65;1.70;;;;;;;8.57;78.40;98605.59;5103093;28;20081;-63
2022/11/07 02:11:50;;;;;;;7.32;1.80;;;;;;;8.63;80.09;98603.31;5097627;28;20027;-63
2022/11/07 02:14:17;;;;;;;3.92;1.52;;;;;;;8.85;81.37;98638.56;5082978;28;20386;-62
2022/11/07 02:16:42;;;;;;;5.18;1.77;;;;;;;8.91;81.99;98632.03;5099122;28;20027;-62
2022/11/07 02:19:16;;;;;;;5.03;1.80;;;;;;;8.95;82.45;98645.53;5082555;28;20028;-63
2022/11/07 02:22:00;;;;;;;4.25;1.80;;;;;;;8.82;79.90;98645.78;5098625;27;20023;-62
2022/11/07 02:24:28;;;;;;;4.40;1.65;;;;;;;8.66;80.56;98644.50;5099176;27;20170;-63
2022/11/07 02:26:56;;;;;;;4.68;2.08;;;;;;;8.67;80.68;98632.38;5084796;28;20045;-62
2022/11/07 02:29:22;;;;;;;5.07;1.70;;;;;;;8.33;81.38;98588.56;5103617;28;20147;-62
2022/11/07 02:31:47;;;;;;;4.88;1.95;;;;;;;8.68;81.09;98628.81;5099245;27;20494;-63
2022/11/07 02:34:12;;;;;;;4.70;1.70;;;;;;;8.73;81.14;98639.63;5104145;28;20028;-62
2022/11/07 02:36:38;;;;;;;5.80;2.00;;;;;;;8.59;82.16;98630.41;5092961;27;20189;-62
2022/11/07 02:39:03;;;;;;;5.18;2.05;;;;;;;8.52;82.74;98628.50;5102728;28;20044;-62
2022/11/07 02:41:33;;;;;;;4.65;1.63;;;;;;;8.54;82.97;98630.03;5093379;28;20042;-62
2022/11/07 02:44:06;;;;;;;6.15;2.05;;;;;;;8.30;83.71;98616.50;5100726;28;20050;-64
2022/11/07 02:46:31;;;;;;;5.40;1.92;;;;;;;8.37;85.02;98640.97;5098992;28;21498;-62
2022/11/07 02:48:58;;;;;;;4.43;1.70;;;;;;;8.33;84.54;98644.75;5098147;28;20077;-62
2022/11/07 02:51:24;;;;;;;4.18;1.67;;;;;;;8.44;84.52;98640.34;5114404;27;20035;-61
2022/11/07 02:53:49;;;;;;;4.75;1.60;;;;;;;8.54;83.15;98639.53;5089683;28;20446;-62
2022/11/07 02:56:15;;;;;;;5.05;1.80;;;;;;;8.47;83.95;98634.09;5099792;28;20030;-62
2022/11/07 02:58:41;;;;;;;4.50;1.70;;;;;;;8.48;83.37;98634.91;5077777;28;20034;-61
2022/11/07 03:01:06;;;;;;;4.10;1.45;;;;;;;8.53;83.20;98641.31;5093191;28;20023;-62
2022/11/07 03:03:34;;;;;;;3.70;1.40;;;;;;;8.53;83.46;98638.72;5074025;28;20458;-62
2022/11/07 03:06:00;;;;;;;7.07;1.60;;;;;;;8.44;82.69;98634.34;5096403;28;20554;-62
2022/11/07 03:08:25;;;;;;;4.50;1.50;;;;;;;8.30;82.04;98603.56;5080062;28;20051;-62
2022/11/07 03:10:50;;;;;;;4.88;1.50;;;;;;;8.52;80.91;98641.44;5097910;28;20662;-62
2022/11/07 03:13:16;;;;;;;5.07;1.60;;;;;;;8.31;80.21;98597.44;5097290;27;20100;-62
2022/11/07 03:15:41;;;;;;;4.43;1.38;;;;;;;8.65;79.13;98634.25;5095701;28;20031;-61
2022/11/07 03:18:07;;;;;;;4.22;1.33;;;;;;;8.64;78.76;98636.03;5100192;27;20024;-62
2022/11/07 03:20:32;;;;;;;4.85;1.90;;;;;;;8.54;80.36;98642.97;5081568;28;20034;-62
2022/11/07 03:22:57;;;;;;;4.70;1.52;;;;;;;8.23;80.60;98605.84;5096221;28;20367;-62
2022/11/07 03:25:23;;;;;;;4.70;1.55;;;;;;;8.37;81.36;98649.53;5094920;28;20055;-62
2022/11/07 03:27:49;;;;;;;4.30;1.60;;;;;;;8.31;81.75;98649.25;5092217;28;20143;-62
2022/11/07 03:30:15;;;;;;;4.45;1.67;;;;;;;8.25;81.65;98641.03;5095924;28;20031;-62
2022/11/07 03:32:40;;;;;;;4.25;1.48;;;;;;;8.27;81.71;98646.91;5092825;28;20561;-62
2022/11/07 03:35:06;;;;;;;5.18;1.55;;;;;;;8.32;81.08;98630.16;5099266;28;20513;-61
2022/11/07 03:37:32;;;;;;;4.72;1.77;;;;;;;8.15;81.42;98627.22;5092310;28;20063;-61
2022/11/07 03:39:57;;;;;;;4.03;1.50;;;;;;;8.31;80.72;98641.47;5099736;28;20032;-62
2022/11/07 03:42:22;;;;;;;4.68;1.58;;;;;;;8.26;81.30;98647.84;5093956;28;20114;-62
2022/11/07 03:44:48;;;;;;;4.30;1.73;;;;;;;8.25;80.61;98651.41;5078174;28;20028;-62
2022/11/07 03:47:13;;;;;;;3.90;1.40;;;;;;;8.19;81.97;98658.84;5096081;28;20027;-62
2022/11/07 03:49:38;;;;;;;3.78;1.30;;;;;;;8.09;82.10;98659.63;5097876;27;20055;-61
2022/11/07 03:52:04;;;;;;;4.03;1.40;;;;;;;8.13;81.27;98649.03;5092893;28;20111;-62
2022/11/07 03:54:29;;;;;;;4.20;1.60;;;;;;;8.16;81.64;98647.00;5097665;28;20519;-62
2022/11/07 03:56:55;;;;;;;3.90;1.40;;;;;;;7.91;82.91;98611.16;5097348;28;20791;-62
2022/11/07 03:59:20;;;;;;;3.42;1.20;;;;;;;8.18;83.59;98645.09;5077125;28;20024;-62
2022/11/07 04:01:46;;;;;;;3.90;1.35;;;;;;;8.34;83.65;98656.75;5093335;28;20038;-62
2022/11/07 04:04:12;;;;;;;4.07;1.42;;;;;;;8.23;82.98;98652.47;5096324;28;20023;-62
2022/11/07 04:06:37;;;;;;;4.40;1.35;;;;;;;8.12;83.41;98640.41;5095483;28;20062;-62
2022/11/07 04:09:03;;;;;;;4.50;1.65;;;;;;;8.19;84.58;98657.09;5093518;28;20034;-62
2022/11/07 04:19:40;;;;;;;5.03;1.73;;;;;;;8.21;87.32;98682.88;5095547;28;20047;-62
2022/11/07 04:22:06;;;;;;;3.97;1.60;;;;;;;8.20;87.60;98678.66;5096823;28;20062;-62
2022/11/07 04:24:31;;;;;;;7.63;1.85;;;;;;;8.09;86.45;98661.41;5095324;28;20055;-62
2022/11/07 04:29:41;;;;;;;5.15;1.90;;;;;;;7.86;87.97;98643.41;5096782;28;20078;-62
2022/11/07 04:32:06;;;;;;;4.32;1.77;;;;;;;7.98;87.02;98680.41;5093633;28;20114;-62
2022/11/07 04:34:31;;;;;;;4.68;1.55;;;;;;;7.75;87.45;98640.88;5096751;27;20641;-62
2022/11/07 04:36:57;;;;;;;4.32;1.63;;;;;;;8.05;88.25;98666.03;5099424;28;20039;-62
2022/11/07 04:39:22;;;;;;;3.80;1.33;;;;;;;7.96;88.06;98671.13;5095273;28;20420;-62
2022/11/07 04:41:48;;;;;;;4.47;1.52;;;;;;;7.73;87.65;98639.38;5089883;28;20020;-62
2022/11/07 04:44:13;;;;;;;3.95;1.35;;;;;;;7.77;89.13;98644.16;5093640;28;20027;-62
2022/11/07 04:46:38;;;;;;;5.32;1.30;;;;;;;7.88;88.60;98641.53;5092297;28;20059;-62
2022/11/07 04:49:04;;;;;;;3.65;1.30;;;;;;;8.18;88.36;98667.59;5090048;28;20053;-61
2022/11/07 04:51:29;;;;;;;3.90;1.30;;;;;;;8.07;88.65;98669.31;5097425;27;20035;-62
2022/11/07 04:53:54;;;;;;;3.33;1.30;;;;;;;7.92;89.00;98675.72;5093248;28;20032;-63
2022/11/07 04:56:20;;;;;;;3.80;1.23;;;;;;;8.06;88.25;98672.81;5078973;28;20032;-62
2022/11/07 04:58:45;;;;;;;3.85;1.25;;;;;;;8.14;88.84;98674.81;5107828;27;20477;-62
2022/11/07 05:01:48;;;;;;;3.53;1.20;;;;;;;8.02;88.75;98678.41;5091118;28;20023;-62
2022/11/07 05:04:13;;;;;;;3.70;1.10;;;;;;;8.16;89.87;98680.66;5100267;27;20756;-62
2022/11/07 05:06:39;;;;;;;3.85;1.35;;;;;;;8.14;89.31;98689.50;5096732;28;20110;-62
2022/11/07 05:09:04;;;;;;;3.35;1.25;;;;;;;8.02;88.97;98681.81;5099133;28;20034;-62
2022/11/07 05:11:30;;;;;;;3.70;1.40;;;;;;;7.95;89.13;98691.03;5088005;28;20023;-62
2022/11/07 05:13:55;;;;;;;3.80;1.48;;;;;;;7.99;89.66;98694.19;5095013;28;20032;-62
2022/11/07 05:16:20;;;;;;;5.00;1.48;;;;;;;8.08;89.96;98686.47;5100474;28;20172;-62
2022/11/07 05:18:46;;;;;;;5.32;1.70;;;;;;;7.95;91.13;98659.13;5085718;28;20028;-61
2022/11/07 05:21:11;;;;;;;4.25;1.40;;;;;;;8.18;90.64;98685.72;5086153;28;20398;-62
2022/11/07 05:23:37;;;;;;;3.35;1.30;;;;;;;8.01;88.72;98698.31;5090175;28;20031;-62
2022/11/07 05:26:03;;;;;;;3.72;1.23;;;;;;;8.01;89.36;98702.63;5099512;28;20035;-62
2022/11/07 05:28:30;;;;;;;3.50;1.48;;;;;;;8.08;89.06;98716.72;5078688;28;20059;-62
2022/11/07 05:31:00;;;;;;;5.30;1.55;;;;;;;8.04;88.96;98707.56;5078011;28;20027;-61
2022/11/07 05:33:25;;;;;;;3.83;1.20;;;;;;;8.02;88.76;98727.59;5091192;28;20514;-62
2022/11/07 05:35:50;;;;;;;4.10;1.35;;;;;;;7.93;88.95;98731.75;5089813;28;20047;-62
2022/11/07 05:38:16;;;;;;;4.10;1.50;;;;;;;7.88;88.42;98720.94;5096700;28;20667;-62
2022/11/07 05:40:41;;;;;;;4.60;1.40;;;;;;;7.93;87.69;98728.34;5098596;28;20040;-62
2022/11/07 05:43:09;;;;;;;3.75;1.40;;;;;;;7.87;88.05;98720.13;5082756;28;20035;-62
2022/11/07 05:45:39;;;;;;;3.83;1.30;;;;;;;7.88;88.03;98721.78;5079521;28;20427;-62
2022/11/07 05:48:09;;;;;;;4.35;1.42;;;;;;;7.71;87.12;98693.84;5097802;28;20104;-62
2022/11/07 05:50:36;;;;;;;4.40;1.30;;;;;;;7.80;87.57;98726.75;5095347;28;20088;-62
2022/11/07 05:53:02;;;;;;;3.85;1.50;;;;;;;7.83;87.23;98726.50;5096933;28;20070;-62
2022/11/07 05:55:27;;;;;;;4.35;1.30;;;;;;;7.82;87.94;98717.09;5096332;28;20042;-62
2022/11/07 05:57:53;;;;;;;5.65;1.50;;;;;;;7.86;87.51;98718.47;5123942;27;20415;-62
2022/11/07 06:00:18;;;;;;;3.92;1.35;;;;;;;7.94;87.39;98724.81;5097387;28;20775;-62
2022/11/07 06:02:47;;;;;;;3.85;1.35;;;;;;;7.67;87.40;98689.88;5094632;28;20023;-61
2022/11/07 06:05:12;;;;;;;4.65;1.50;;;;;;;7.87;87.48;98729.69;5071891;28;20838;-63
2022/11/07 06:07:38;;;;;;;4.20;1.50;;;;;;;7.77;87.23;98728.75;5093779;28;20032;-63
2022/11/07 06:10:07;;;;;;;3.28;1.20;;;;;;;7.79;86.26;98730.28;5079428;28;20028;-62
2022/11/07 06:12:33;;;;;;;3.63;1.10;;;;;;;7.85;86.51;98734.97;5094803;28;20020;-62
2022/11/07 06:14:58;;;;;;;3.50;1.17;;;;;;;7.82;86.48;98737.00;5097409;28;20027;-62
2022/11/07 06:17:23;;;;;;;4.53;1.23;;;;;;;7.59;86.20;98684.47;5097376;28;20051;-62
2022/11/07 06:19:49;;;;;;;3.60;1.20;;;;;;;7.59;86.45;98694.84;5088694;28;20512;-62
2022/11/07 06:22:14;;;;;;;3.95;1.40;;;;;;;7.85;85.87;98737.56;5091412;28;20035;-62
2022/11/07 06:24:40;;;;;;;4.03;1.30;;;;;;;7.84;85.95;98732.50;5096151;28;20031;-62
2022/11/07 06:27:05;;;;;;;3.83;1.30;;;;;;;7.63;86.65;98711.75;5106271;27;20031;-63
2022/11/07 06:29:31;;;;;;;4.50;1.58;;;;;;;7.86;86.32;98746.13;5095449;28;20034;-63
2022/11/07 06:31:56;;;;;;;4.25;1.40;;;;;;;7.52;85.48;98717.81;5096050;28;20039;-63
2022/11/07 06:34:22;;;;;;;3.92;1.40;;;;;;;7.43;86.57;98705.59;5092141;28;20039;-63
2022/11/07 06:36:52;;;;;;;3.80;1.13;;;;;;;7.85;86.05;98753.09;5095485;28;20032;-62
2022/11/07 06:39:17;;;;;;;3.33;1.30;;;;;;;7.86;86.37;98759.91;5092670;28;20057;-62
2022/11/07 06:41:43;;;;;;;4.53;1.50;;;;;;;7.83;86.83;98773.13;5103852;27;20028;-64
2022/11/07 06:44:08;;;;;;;4.63;1.50;;;;;;;7.76;86.96;98771.97;5080367;28;20529;-63
2022/11/07 06:46:33;;;;;;;3.80;1.38;;;;;;;7.91;86.45;98769.09;5096212;28;20038;-63
2022/11/07 06:48:59;;;;;;;3.90;1.30;;;;;;;7.89;86.96;98779.56;5098381;28;20041;-63
2022/11/07 06:51:24;;;;;;;3.30;1.02;;;;;;;7.84;86.97;98773.94;5097134;28;20035;-64
2022/11/07 06:53:50;;;;;;;3.45;1.15;;;;;;;7.99;85.79;98782.22;5098380;28;20035;-63
2022/11/07 06:56:15;;;;;;;3.45;1.35;;;;;;;7.95;nan;98781.66;5096242;28;20130;-64
2022/11/07 06:58:41;;;;;;;4.30;1.35;;;;;;;7.99;86.02;98784.81;5099541;27;20016;-64
2022/11/07 07:01:12;;;;;;;4.55;1.35;;;;;;;7.98;84.46;98786.59;5099706;28;20046;-63
2022/11/07 07:03:38;;;;;;;4.22;1.50;;;;;;;7.95;84.63;98794.59;5116852;27;20397;-63
2022/11/07 07:06:06;;;;;;;4.47;1.27;;;;;;;7.91;84.72;98784.63;5100022;28;20042;-64
2022/11/07 07:08:32;;;;;;;3.58;1.30;;;;;;;8.01;84.26;98795.88;5084717;28;20020;-64
2022/11/07 07:11:02;;;;;;;3.92;1.27;;;;;;;8.00;83.66;98797.63;5090741;27;20493;-63
2022/11/07 07:13:28;;;;;;;5.75;1.92;;;;;;;7.96;84.02;98798.00;5098647;28;20019;-63
2022/11/07 07:15:54;;;;;;;8.38;2.88;;;;;;;8.08;83.70;98799.59;5096606;28;20048;-63
2022/11/07 07:18:20;;;;;;;5.32;1.90;;;;;;;8.03;82.01;98805.16;5098467;28;20024;-62
2022/11/07 07:20:49;;;;;;;3.63;1.25;;;;;;;8.06;81.94;98809.25;5080563;28;20435;-61
2022/11/07 07:23:16;;;;;;;2.90;1.00;;;;;;;8.07;81.88;98816.09;5096361;28;20020;-63
2022/11/07 07:25:41;;;;;;;5.55;1.20;;;;;;;8.00;82.05;98820.13;5096027;28;20078;-62
2022/11/07 07:28:06;;;;;;;3.05;1.20;;;;;;;7.99;81.36;98814.09;5096874;28;20102;-63
2022/11/07 07:30:32;;;;;;;5.32;1.52;;;;;;;8.01;81.19;98803.63;5096037;28;20047;-62
2022/11/07 07:32:57;;;;;;;2.95;1.15;;;;;;;8.06;81.04;98817.84;5090459;28;20047;-63
2022/11/07 07:35:22;;;;;;;4.10;1.30;;;;;;;8.08;81.27;98828.09;5095285;27;20469;-62
2022/11/07 07:37:50;;;;;;;3.08;1.10;;;;;;;7.93;81.42;98824.16;5095820;27;20034;-62
2022/11/07 07:40:15;;;;;;;3.80;1.30;;;;;;;7.99;81.86;98831.41;5091847;28;20083;-63
2022/11/07 07:42:42;;;;;;;4.28;1.55;;;;;;;8.03;81.64;98832.81;5093731;28;20032;-63
2022/11/07 07:45:11;;;;;;;4.20;1.20;;;;;;;8.17;81.95;98839.47;5095657;28;20027;-63
2022/11/07 07:47:37;;;;;;;;;;;;;;;8.19;81.62;98843.59;5100902;28;20039;-62
2022/11/07 07:50:04;;;;;;;4.15;1.20;;;;;;;8.12;81.21;98847.59;5096984;28;19908;-62
2022/11/07 07:52:29;;;;;;;6.10;3.10;;;;;;;8.12;80.34;98842.44;5097234;28;20055;-62
2022/11/07 07:54:54;;;;;;;4.10;1.52;;;;;;;8.14;80.76;98845.75;5095571;28;20096;-63
2022/11/07 07:57:20;;;;;;;3.70;1.40;;;;;;;8.09;80.41;98847.88;5095412;28;20034;-62
2022/11/07 07:59:45;;;;;;;6.05;1.30;;;;;;;8.10;80.48;98849.50;5100180;28;20724;-62
2022/11/07 08:02:11;;;;;;;4.65;1.38;;;;;;;7.82;80.38;98823.22;5091422;28;20768;-62
2022/11/07 08:04:36;;;;;;;3.63;1.10;;;;;;;8.14;80.34;98868.22;5081108;28;20085;-62
2022/11/07 08:07:02;;;;;;;4.57;1.20;;;;;;;8.06;80.24;98877.41;5097703;28;20024;-63
2022/11/07 08:09:30;;;;;;;4.07;1.20;;;;;;;8.04;79.95;98870.72;5098506;28;20412;-62
2022/11/07 08:11:55;;;;;;;3.55;1.25;;;;;;;8.03;80.92;98869.06;5097619;28;20030;-62
2022/11/07 08:14:21;;;;;;;3.80;1.35;;;;;;;8.00;81.00;98875.31;5078151;28;20433;-63
2022/11/07 08:16:46;;;;;;;3.17;0.98;;;;;;;8.07;80.86;98888.63;5091930;27;20035;-63
2022/11/07 08:19:11;;;;;;;3.45;1.23;;;;;;;7.87;81.25;98854.75;5108930;27;20027;-61
2022/11/07 08:21:37;;;;;;;3.95;1.17;;;;;;;8.11;80.37;98882.25;5092905;28;20069;-64
2022/11/07 08:24:03;;;;;;;3.65;1.30;;;;;;;8.17;80.70;98884.34;5089415;28;20023;-63
2022/11/07 08:26:28;;;;;;;3.67;1.30;;;;;;;7.58;80.63;98801.91;5097392;28;20545;-63
2022/11/07 08:28:53;;;;;;;2.97;1.10;;;;;;;8.20;79.50;98891.06;5097729;28;20035;-62
2022/11/07 08:31:19;;;;;;;4.15;1.20;;;;;;;8.30;80.91;98876.41;5096404;28;20882;-62
2022/11/07 08:33:45;;;;;;;4.25;1.67;;;;;;;8.03;78.72;98838.00;5091350;28;20027;-62
2022/11/07 08:36:10;;;;;;;3.97;1.30;;;;;;;8.14;78.84;98848.34;5097139;28;20059;-63
2022/11/07 08:38:36;;;;;;;4.90;1.48;;;;;;;8.32;80.11;98871.09;5114983;27;20099;-63
2022/11/07 08:41:02;;;;;;;4.13;1.25;;;;;;;8.34;82.20;98882.16;5094457;28;20084;-62
2022/11/07 08:43:27;;;;;;;4.68;1.52;;;;;;;8.32;80.17;98884.88;5096921;28;20080;-63
2022/11/07 08:45:53;;;;;;;4.05;1.38;;;;;;;8.18;81.49;98844.53;5112595;27;20447;-64
2022/11/07 08:48:19;;;;;;;3.85;1.00;;;;;;;8.34;77.46;98872.63;5114050;27;20031;-62
2022/11/07 08:50:45;;;;;;;3.83;1.20;;;;;;;8.39;80.93;98880.03;5110969;27;20130;-63
2022/11/07 08:53:11;;;;;;;4.38;1.52;;;;;;;8.30;81.95;98893.72;5110611;27;20142;-63
2022/11/07 08:55:37;;;;;;;3.60;1.10;;;;;;;8.30;80.70;98888.53;5097434;28;20057;-62
2022/11/07 08:58:05;;;;;;;3.47;1.05;;;;;;;8.32;79.99;98881.47;5098836;28;20031;-63
2022/11/07 09:00:31;;;;;;;3.88;1.20;;;;;;;8.41;80.06;98891.06;5116660;27;20040;-63
2022/11/07 09:03:05;;;;;;;3.88;1.50;;;;;;;8.31;79.44;98888.41;5092706;28;20023;-63
2022/11/07 09:05:30;;;;;;;3.92;1.20;;;;;;;8.40;77.85;98889.44;5099131;28;20039;-63
2022/11/07 09:07:56;;;;;;;3.58;1.17;;;;;;;8.42;75.16;98893.59;5081774;28;20035;-65
2022/11/07 09:10:22;;;;;;;3.80;1.40;;;;;;;8.45;73.81;98895.94;5096750;28;20523;-64
2022/11/07 09:12:48;;;;;;;3.90;1.33;;;;;;;8.32;75.07;98892.63;5098744;28;20054;-65
2022/11/07 09:15:14;;;;;;;3.97;1.38;;;;;;;8.47;74.90;98893.22;5101267;28;20036;-65
2022/11/07 09:17:40;;;;;;;3.95;1.20;;;;;;;8.51;75.88;98888.63;5112349;27;20035;-64
2022/11/07 09:20:06;;;;;;;3.45;1.08;;;;;;;8.24;74.11;98843.22;5094363;28;20525;-65
2022/11/07 09:22:31;;;;;;;4.32;1.50;;;;;;;8.54;77.74;98889.19;5091612;28;20028;-64
2022/11/07 09:24:57;;;;;;;4.22;1.10;;;;;;;8.57;79.47;98882.91;5086778;28;20048;-63
2022/11/07 09:27:22;;;;;;;5.18;1.30;;;;;;;8.31;78.61;98854.75;5075210;28;20111;-63
2022/11/07 09:29:48;;;;;;;4.22;1.70;;;;;;;8.52;76.08;98883.28;5100932;28;20123;-64
2022/11/07 09:32:13;;;;;;;3.00;1.00;;;;;;;8.42;77.14;98861.66;5080699;28;20032;-64
2022/11/07 09:34:38;;;;;;;4.13;1.15;;;;;;;8.38;73.80;98886.16;5096322;28;20031;-65
2022/11/07 09:37:04;;;;;;;4.10;0.93;;;;;;;8.41;71.49;98899.66;5099103;28;20028;-65
2022/11/07 09:39:29;;;;;;;3.45;1.10;;;;;;;8.42;70.34;98887.59;5084125;28;20389;-66
2022/11/07 09:42:02;;;;;;;3.17;0.93;;;;;;;8.49;68.91;98880.97;5104745;27;20763;-65
2022/11/07 09:44:33;;;;;;;2.83;0.90;;;;;;;8.71;67.69;98894.78;5095094;28;20051;-66
2022/11/07 09:47:18;;;;;;;3.75;1.00;;;;;;;8.79;68.21;98890.56;5102263;28;20032;-65
2022/11/07 09:49:47;;;;;;;2.95;0.93;;;;;;;8.90;67.64;98894.88;5083767;28;20055;-65
2022/11/07 09:52:14;;;;;;;4.10;1.13;;;;;;;8.98;68.16;98897.66;5108138;27;20781;-65
2022/11/07 09:54:44;;;;;;;2.97;0.80;;;;;;;9.21;66.79;98898.31;5115165;27;20535;-64
2022/11/07 09:57:16;;;;;;;3.22;1.00;;;;;;;9.36;64.04;98904.03;5102153;28;20625;-65
2022/11/07 10:00:02;;;;;;;3.35;1.00;;;;;;;9.36;65.77;98908.38;5113658;27;20027;-65
2022/11/07 10:02:30;;;;;;;2.47;0.80;;;;;;;9.36;62.49;98909.22;5099601;28;20038;-64
2022/11/07 10:04:57;;;;;;;2.28;0.70;;;;;;;9.27;62.55;98885.78;5100948;28;20063;-65
2022/11/07 10:07:34;;;;;;;2.72;0.90;;;;;;;9.44;61.92;98903.38;5097825;28;20127;-63
2022/11/07 10:10:07;;;;;;;3.85;0.80;;;;;;;9.56;61.26;98901.47;5103868;28;20032;-65
2022/11/07 10:12:54;;;;;;;2.10;0.70;;;;;;;9.65;59.89;98900.69;5115664;27;20116;-65
2022/11/07 10:15:43;;;;;;;3.50;0.75;;;;;;;9.45;59.55;98868.66;5093065;28;20082;-65
2022/11/07 10:18:19;;;;;;;2.58;0.80;;;;;;;9.74;58.25;98907.69;5098466;28;20159;-64
2022/11/07 10:21:03;;;;;;;2.00;0.60;;;;;;;9.87;59.78;98901.44;5099609;28;20055;-64
2022/11/07 10:23:28;;;;;;;1.88;0.73;;;;;;;10.01;58.19;98893.28;5099273;28;20591;-65
2022/11/07 10:26:01;;;;;;;2.60;0.80;;;;;;;9.97;57.83;98869.34;5102645;28;20036;-65
2022/11/07 10:28:26;;;;;;;3.10;0.98;;;;;;;10.25;58.39;98900.69;5100599;28;20424;-64
2022/11/07 10:30:53;;;;;;;2.53;0.75;;;;;;;10.29;56.93;98896.84;5116660;27;20076;-65
2022/11/07 10:33:25;;;;;;;3.83;1.40;;;;;;;10.42;55.49;98888.00;5100053;27;20107;-63
2022/11/07 10:35:57;;;;;;;2.90;0.95;;;;;;;10.44;56.35;98892.13;5101258;28;20082;-64
2022/11/07 10:38:27;;;;;;;4.22;1.70;;;;;;;10.41;57.64;98884.59;5099247;28;20108;-64
2022/11/07 10:40:53;;;;;;;4.20;1.25;;;;;;;10.47;58.97;98875.41;5116114;27;20024;-64
2022/11/07 10:43:41;;;;;;;4.45;1.13;;;;;;;10.49;55.66;98871.72;5097228;28;20011;-62
2022/11/07 10:46:15;;;;;;;3.97;1.35;;;;;;;10.49;59.19;98873.50;5085168;28;20062;-62
2022/11/07 10:48:58;;;;;;;2.80;1.00;;;;;;;10.83;59.37;98881.69;5099659;27;20108;-60
2022/11/07 10:51:37;;;;;;;3.65;1.05;;;;;;;10.82;59.97;98880.03;5100527;27;20316;-65
2022/11/07 10:54:03;;;;;;;3.67;1.20;;;;;;;10.91;59.14;98875.78;5092767;28;20118;-63
2022/11/07 10:56:29;;;;;;;4.13;0.90;;;;;;;10.93;58.10;98879.06;5100531;27;20031;-62
2022/11/07 10:58:55;;;;;;;3.70;1.00;;;;;;;10.88;57.29;98865.63;5099985;27;20027;-63
2022/11/07 11:01:24;;;;;;;3.40;1.00;;;;;;;11.03;58.02;98866.84;5098452;27;20474;-62
2022/11/07 11:03:50;;;;;;;2.80;0.90;;;;;;;11.10;59.20;98862.72;5083382;28;20066;-64
2022/11/07 11:06:29;;;;;;;3.10;0.93;;;;;;;11.11;59.84;98864.34;5101335;27;20142;-62
2022/11/07 11:08:55;;;;;;;2.10;0.70;;;;;;;10.95;59.73;98827.69;5097562;27;20028;-63
2022/11/07 11:11:26;;;;;;;2.53;0.77;;;;;;;11.27;57.62;98858.53;5062911;28;20049;-62
2022/11/07 11:14:05;;;;;;;1.85;0.60;;;;;;;11.48;56.74;98855.72;5089281;28;20055;-62
2022/11/07 11:16:34;;;;;;;2.95;0.90;;;;;;;11.58;55.62;98863.47;5083524;28;20083;-62
2022/11/07 11:19:00;;;;;;;3.83;0.90;;;;;;;11.49;57.91;98862.56;5088941;28;20035;-61
2022/11/07 11:21:26;;;;;;;2.83;1.00;;;;;;;11.68;56.16;98859.06;5092413;28;20027;-64
2022/11/07 11:23:52;;;;;;;3.78;1.23;;;;;;;11.85;54.46;98857.44;5089744;28;20176;-62
2022/11/07 11:26:29;;;;;;;2.95;1.05;;;;;;;11.89;53.05;98855.34;5084226;28;20024;-64
2022/11/07 11:28:58;;;;;;;3.97;1.35;;;;;;;12.03;55.09;98851.44;5099301;27;21537;-61
2022/11/07 11:31:49;;;;;;;3.63;1.15;;;;;;;12.09;55.69;98836.03;5067182;28;20035;-63
2022/11/07 11:34:29;;;;;;;2.58;0.93;;;;;;;12.10;55.79;98829.88;5091120;28;20028;-62
2022/11/07 11:37:10;;;;;;;3.25;0.93;;;;;;;12.26;55.18;98839.59;5085077;28;20028;-61
2022/11/07 11:40:03;;;;;;;2.10;0.70;;;;;;;12.28;62.37;98842.91;5102061;27;20023;-62
2022/11/07 11:42:48;;;;;;;3.20;0.93;;;;;;;12.30;60.18;98834.91;5078155;28;20027;-61
2022/11/07 11:45:16;;;;;;;2.92;0.82;;;;;;;12.25;57.71;98822.34;5097296;27;20103;-61
2022/11/07 11:47:46;;;;;;;2.55;0.90;;;;;;;12.27;58.26;98816.97;5084288;27;20223;-62
2022/11/07 11:50:18;;;;;;;3.08;0.90;;;;;;;12.41;58.14;98824.28;5099922;27;20486;-62
2022/11/07 11:52:44;;;;;;;2.97;0.93;;;;;;;12.35;58.61;98816.22;5084486;28;20309;-63
2022/11/07 11:55:15;;;;;;;3.28;1.00;;;;;;;12.37;57.08;98817.69;5097341;27;20058;-64
2022/11/07 11:58:03;;;;;;;3.30;1.08;;;;;;;12.42;58.26;98815.47;5083028;28;20034;-64